Time;durP1;ratioP1;P1;durP2;ratioP2;P2;SDS_P1;SDS_P2;PMS_P1;PMS_P2;Temp;Humidity;BMP_temperature;BMP_pressure;BME280_temperature;BME280_humidity;BME280_pressure;Samples;Min_cycle;Max_cycle;Signal;HPM_P1;HPM_P2
2023/08/08 00:01:21;;;;;;;7.70;2.65;;;19.10;62.70;;;;;;4917759;29;20024;-81
2023/08/08 00:03:47;;;;;;;5.43;2.03;;;19.10;62.90;;;;;;4917170;29;20103;-81
2023/08/08 00:06:13;;;;;;;5.22;2.38;;;19.00;63.60;;;;;;4919276;29;20123;-81
2023/08/08 00:08:39;;;;;;;5.30;2.38;;;18.90;63.70;;;;;;4918723;29;20032;-81
2023/08/08 00:11:05;;;;;;;2.70;2.17;;;18.90;63.60;;;;;;4918807;29;20020;-81
2023/08/08 00:13:30;;;;;;;6.03;2.17;;;18.90;63.90;;;;;;4917798;29;20032;-81
2023/08/08 00:15:56;;;;;;;4.60;2.08;;;18.90;64.20;;;;;;4919871;29;20024;-81
2023/08/08 00:18:22;;;;;;;3.55;2.08;;;18.90;64.20;;;;;;4933579;29;20512;-81
2023/08/08 00:20:48;;;;;;;3.20;2.03;;;19.00;63.90;;;;;;4918358;29;20043;-81
2023/08/08 00:23:13;;;;;;;3.58;2.22;;;18.90;63.90;;;;;;4919235;29;20427;-81
2023/08/08 00:25:39;;;;;;;3.38;1.85;;;18.90;64.30;;;;;;4919338;29;20088;-80
2023/08/08 00:28:05;;;;;;;3.92;1.80;;;18.80;64.80;;;;;;4933736;29;20032;-81
2023/08/08 00:30:31;;;;;;;4.78;2.90;;;18.70;64.90;;;;;;4918020;29;20410;-81
2023/08/08 00:32:57;;;;;;;8.35;2.33;;;18.80;65.20;;;;;;4917628;29;20035;-81
2023/08/08 00:35:23;;;;;;;3.55;2.65;;;18.80;64.90;;;;;;4918440;29;20032;-80
2023/08/08 00:37:49;;;;;;;3.55;2.55;;;18.90;64.40;;;;;;4917505;29;20087;-80
2023/08/08 00:40:15;;;;;;;7.73;2.00;;;19.00;64.40;;;;;;4920423;29;20051;-81
2023/08/08 00:42:41;;;;;;;2.47;1.83;;;19.00;64.00;;;;;;4918264;29;20318;-81
2023/08/08 00:45:07;;;;;;;3.73;2.10;;;19.00;63.90;;;;;;4915064;29;20025;-81
2023/08/08 00:47:34;;;;;;;7.15;2.15;;;19.00;63.90;;;;;;4898814;29;20517;-81
2023/08/08 00:50:02;;;;;;;4.68;2.20;;;19.00;63.90;;;;;;4898559;29;20032;-80
2023/08/08 00:52:28;;;;;;;6.70;2.25;;;19.00;64.10;;;;;;4899261;29;20780;-81
2023/08/08 00:54:55;;;;;;;6.70;2.50;;;19.00;64.00;;;;;;4900792;29;20033;-81
2023/08/08 00:57:21;;;;;;;6.07;2.00;;;19.00;63.90;;;;;;4902177;29;20060;-81
2023/08/08 00:59:47;;;;;;;7.68;1.80;;;19.10;63.80;;;;;;4931814;29;20032;-81
2023/08/08 01:02:15;;;;;;;3.15;2.03;;;19.10;64.00;;;;;;4916849;29;20035;-81
2023/08/08 01:04:41;;;;;;;5.17;2.00;;;19.10;64.30;;;;;;4932655;29;20092;-81
2023/08/08 01:07:11;;;;;;;2.30;1.97;;;19.10;64.60;;;;;;4910460;29;20038;-81
2023/08/08 01:09:44;;;;;;;3.72;1.92;;;19.10;64.20;;;;;;4994827;23;20055;-80
2023/08/08 01:12:12;;;;;;;2.85;2.28;;;19.20;64.00;;;;;;4946938;29;20062;-79
2023/08/08 01:14:42;;;;;;;2.50;1.90;;;19.00;63.70;;;;;;4949879;29;20031;-80
2023/08/08 01:17:09;;;;;;;3.58;1.90;;;19.00;64.50;;;;;;4945177;29;20505;-80
2023/08/08 01:19:36;;;;;;;4.05;2.22;;;18.80;65.50;;;;;;4947510;29;20051;-80
2023/08/08 01:22:06;;;;;;;2.10;1.70;;;18.60;66.70;;;;;;4947135;29;20038;-79
2023/08/08 01:24:36;;;;;;;2.85;2.15;;;18.60;66.20;;;;;;4948101;29;20038;-80
2023/08/08 01:27:04;;;;;;;2.20;1.83;;;18.60;66.20;;;;;;4949215;29;20034;-80
2023/08/08 01:29:30;;;;;;;2.80;1.85;;;18.60;66.20;;;;;;4930426;29;20032;-79
2023/08/08 01:31:56;;;;;;;3.22;1.80;;;18.50;66.60;;;;;;4947008;29;20042;-79
2023/08/08 01:34:22;;;;;;;4.20;2.13;;;18.60;66.40;;;;;;4948538;29;20031;-80
2023/08/08 01:37:11;;;;;;;2.67;1.63;;;18.60;66.30;;;;;;4945592;29;20499;-79
2023/08/08 01:39:38;;;;;;;6.55;2.35;;;18.60;66.20;;;;;;4963263;29;20040;-80
2023/08/08 01:42:06;;;;;;;2.63;1.90;;;18.40;66.60;;;;;;4943779;29;20052;-80
2023/08/08 01:44:34;;;;;;;2.70;1.80;;;18.60;66.00;;;;;;4948380;29;20131;-79
2023/08/08 01:47:00;;;;;;;2.97;1.67;;;18.70;64.80;;;;;;4945683;29;20078;-79
2023/08/08 01:49:26;;;;;;;2.25;1.85;;;18.80;64.20;;;;;;4944672;29;20038;-80
2023/08/08 01:51:52;;;;;;;5.47;1.85;;;18.80;63.60;;;;;;4948002;29;20023;-80
2023/08/08 01:54:19;;;;;;;3.00;1.50;;;18.90;62.70;;;;;;4945968;29;20038;-79
2023/08/08 01:56:45;;;;;;;1.98;1.60;;;19.00;62.10;;;;;;4943980;29;20039;-80
2023/08/08 01:59:11;;;;;;;7.18;2.25;;;19.10;61.90;;;;;;4944651;29;20032;-80
2023/08/08 02:01:37;;;;;;;7.55;1.80;;;19.00;62.60;;;;;;4946258;29;20035;-80
2023/08/08 02:04:02;;;;;;;2.75;1.75;;;19.00;63.00;;;;;;4948565;29;20079;-79
2023/08/08 02:06:29;;;;;;;4.10;1.50;;;19.00;63.30;;;;;;4947227;29;20024;-80
2023/08/08 02:08:55;;;;;;;4.43;2.00;;;19.00;63.60;;;;;;4948271;29;20031;-80
2023/08/08 02:11:21;;;;;;;4.28;1.80;;;19.00;63.70;;;;;;4945911;29;20060;-79
2023/08/08 02:13:48;;;;;;;5.68;1.85;;;19.00;64.00;;;;;;4947322;29;20043;-81
2023/08/08 02:16:14;;;;;;;3.42;1.80;;;19.00;64.00;;;;;;4948972;29;20032;-81
2023/08/08 02:18:41;;;;;;;3.28;1.88;;;19.00;63.90;;;;;;4948618;29;20032;-80
2023/08/08 02:21:07;;;;;;;3.67;1.70;;;19.00;63.90;;;;;;4945489;29;20032;-79
2023/08/08 02:23:34;;;;;;;2.05;1.42;;;19.00;64.10;;;;;;4947048;29;20064;-80
2023/08/08 02:26:00;;;;;;;7.47;2.47;;;19.00;63.90;;;;;;4947342;29;20441;-80
2023/08/08 02:28:26;;;;;;;2.70;1.67;;;19.00;63.70;;;;;;4941668;29;20052;-80
2023/08/08 02:30:53;;;;;;;2.67;1.55;;;18.90;64.20;;;;;;4947494;29;20027;-80
2023/08/08 02:33:19;;;;;;;;;;;18.90;64.10;;;;;;4948122;29;20028;-80
2023/08/08 02:35:45;;;;;;;4.40;1.75;;;18.90;63.50;;;;;;4943009;29;19918;-79
2023/08/08 02:38:11;;;;;;;2.70;2.10;;;18.90;64.20;;;;;;4943765;29;20043;-80
2023/08/08 02:40:40;;;;;;;3.42;1.95;;;18.90;64.20;;;;;;4948268;29;20027;-79
2023/08/08 02:43:06;;;;;;;3.47;1.88;;;18.80;64.70;;;;;;4947399;29;20056;-79
2023/08/08 02:45:32;;;;;;;3.10;1.60;;;18.70;64.80;;;;;;4948866;29;20031;-80
2023/08/08 02:47:58;;;;;;;1.67;1.45;;;18.60;65.20;;;;;;4948203;29;20032;-79
2023/08/08 02:50:24;;;;;;;4.20;1.52;;;18.60;65.50;;;;;;4946985;29;20027;-79
2023/08/08 02:52:50;;;;;;;3.88;1.65;;;18.60;64.40;;;;;;4944791;29;20032;-80
2023/08/08 02:55:17;;;;;;;2.88;1.50;;;18.60;64.40;;;;;;4948164;29;20020;-80
2023/08/08 02:57:47;;;;;;;2.95;1.58;;;18.60;64.70;;;;;;4948302;29;20035;-80
2023/08/08 03:00:13;;;;;;;6.50;1.70;;;18.70;64.70;;;;;;4949197;29;20028;-80
2023/08/08 03:02:42;;;;;;;2.20;1.30;;;18.70;64.90;;;;;;4951175;29;20060;-80
2023/08/08 03:05:09;;;;;;;1.63;1.10;;;18.70;64.60;;;;;;4936278;29;20118;-79
2023/08/08 03:07:35;;;;;;;5.45;2.17;;;18.70;64.70;;;;;;4951014;29;20027;-80
2023/08/08 03:10:01;;;;;;;2.20;1.50;;;18.60;64.80;;;;;;4947342;29;20032;-79
2023/08/08 03:12:28;;;;;;;4.93;1.65;;;18.60;65.00;;;;;;4940484;29;20020;-80
2023/08/08 03:14:54;;;;;;;3.30;1.58;;;18.60;65.30;;;;;;4934169;29;20054;-80
2023/08/08 03:17:21;;;;;;;6.68;2.40;;;18.50;65.50;;;;;;4954541;29;20043;-81
2023/08/08 03:19:47;;;;;;;4.32;2.15;;;18.50;65.20;;;;;;4946260;29;20028;-81
2023/08/08 03:22:14;;;;;;;2.67;1.60;;;18.40;65.50;;;;;;4934335;29;20379;-81
2023/08/08 03:24:39;;;;;;;2.30;1.60;;;18.40;65.70;;;;;;4945727;29;20059;-82
2023/08/08 03:27:05;;;;;;;5.38;1.70;;;18.40;66.30;;;;;;4969908;29;20012;-82
2023/08/08 03:29:31;;;;;;;3.22;1.65;;;18.40;66.70;;;;;;4955619;29;20047;-82
2023/08/08 03:31:58;;;;;;;;;;;18.30;67.80;;;;;;4944878;29;20111;-82
2023/08/08 03:34:27;;;;;;;2.28;1.50;;;18.30;68.50;;;;;;4936071;29;19949;-81
2023/08/08 03:36:53;;;;;;;3.42;1.88;;;18.20;67.40;;;;;;4950357;29;20035;-82
2023/08/08 03:39:19;;;;;;;2.08;1.58;;;18.20;67.10;;;;;;4955350;29;20028;-81
2023/08/08 03:41:45;;;;;;;2.17;1.40;;;18.20;66.90;;;;;;4955803;29;20024;-80
2023/08/08 03:44:11;;;;;;;4.03;2.27;;;18.20;66.90;;;;;;4956188;29;20045;-81
2023/08/08 03:46:37;;;;;;;7.20;2.38;;;18.20;67.10;;;;;;4954958;29;20024;-82
2023/08/08 03:49:03;;;;;;;7.88;3.60;;;18.10;67.40;;;;;;4949511;29;20039;-82
2023/08/08 03:51:29;;;;;;;13.48;1.88;;;18.10;67.20;;;;;;4949886;29;20024;-79
2023/08/08 03:53:56;;;;;;;;;;;18.10;67.30;;;;;;4947791;29;20545;-79
2023/08/08 03:56:22;;;;;;;7.95;2.15;;;18.10;66.40;;;;;;4946589;29;19915;-79
2023/08/08 03:58:48;;;;;;;8.75;1.77;;;18.00;67.20;;;;;;4946091;29;20051;-79
2023/08/08 04:01:14;;;;;;;3.53;1.50;;;18.00;67.40;;;;;;4945579;29;20067;-78
2023/08/08 04:03:40;;;;;;;6.07;2.63;;;18.00;67.90;;;;;;4947257;29;20034;-79
2023/08/08 04:06:05;;;;;;;10.10;2.45;;;18.00;68.20;;;;;;4929151;29;20720;-79
2023/08/08 04:08:32;;;;;;;5.63;2.08;;;18.00;68.60;;;;;;4944227;29;20079;-79
2023/08/08 04:10:58;;;;;;;3.45;2.05;;;18.00;68.10;;;;;;4945545;29;20040;-79
2023/08/08 04:13:24;;;;;;;2.55;1.90;;;18.00;68.60;;;;;;4946316;29;20063;-79
2023/08/08 04:15:51;;;;;;;2.90;2.00;;;18.00;68.40;;;;;;4945492;29;20060;-79
2023/08/08 04:18:18;;;;;;;3.65;1.80;;;18.00;68.40;;;;;;4946725;29;20040;-79
2023/08/08 04:20:45;;;;;;;5.57;2.07;;;18.00;67.80;;;;;;4948037;29;20032;-79
2023/08/08 04:23:11;;;;;;;3.92;2.17;;;18.00;67.50;;;;;;4929449;29;20060;-79
2023/08/08 04:25:37;;;;;;;4.60;1.83;;;18.10;67.30;;;;;;4935755;29;20035;-81
2023/08/08 04:28:03;;;;;;;9.50;2.63;;;18.10;67.30;;;;;;4920720;29;20067;-88
2023/08/08 04:30:29;;;;;;;2.70;2.00;;;18.10;67.40;;;;;;4952580;29;20039;-84
2023/08/08 04:32:55;;;;;;;7.32;2.40;;;18.10;67.40;;;;;;4933524;29;20059;-83
2023/08/08 04:35:21;;;;;;;4.05;2.20;;;18.00;67.30;;;;;;4901301;29;20043;-82
2023/08/08 04:37:46;;;;;;;3.13;2.10;;;18.10;67.60;;;;;;4916246;29;20039;-84
2023/08/08 04:40:12;;;;;;;6.43;2.53;;;18.10;67.90;;;;;;4916601;29;20135;-84
2023/08/08 04:42:38;;;;;;;2.47;2.10;;;18.10;67.50;;;;;;4932092;29;20032;-81
2023/08/08 04:45:05;;;;;;;7.07;2.28;;;18.10;67.10;;;;;;4917908;29;20031;-82
2023/08/08 04:47:31;;;;;;;6.85;2.28;;;18.10;67.00;;;;;;4928240;29;20042;-84
2023/08/08 04:49:57;;;;;;;5.35;2.20;;;18.10;67.10;;;;;;4935728;29;20032;-82
2023/08/08 04:52:23;;;;;;;4.25;1.88;;;18.00;67.80;;;;;;4913928;29;20092;-83
2023/08/08 04:54:48;;;;;;;7.15;2.10;;;18.00;68.40;;;;;;4922724;29;20024;-82
2023/08/08 04:57:14;;;;;;;3.30;2.10;;;17.80;68.90;;;;;;4919451;29;20542;-82
2023/08/08 04:59:40;;;;;;;2.42;1.98;;;17.80;69.10;;;;;;4933139;29;20040;-84
2023/08/08 05:02:06;;;;;;;3.35;2.15;;;17.60;70.30;;;;;;4917526;29;20564;-84
2023/08/08 05:04:33;;;;;;;6.50;2.53;;;17.50;71.00;;;;;;4915947;29;20521;-84
2023/08/08 05:06:58;;;;;;;3.05;2.13;;;17.40;71.30;;;;;;4918137;29;20032;-85
2023/08/08 05:09:26;;;;;;;4.85;2.72;;;17.50;71.30;;;;;;4935573;29;20032;-85
2023/08/08 05:11:53;;;;;;;5.72;2.28;;;17.50;71.10;;;;;;4940785;29;20028;-87
2023/08/08 05:14:19;;;;;;;2.10;1.90;;;17.50;70.90;;;;;;4920274;29;20036;-85
2023/08/08 05:16:46;;;;;;;6.67;2.77;;;17.50;71.00;;;;;;4922494;29;20028;-85
2023/08/08 05:19:12;;;;;;;5.53;1.92;;;17.60;71.10;;;;;;4936514;29;20059;-87
2023/08/08 05:21:38;;;;;;;5.93;3.00;;;17.60;71.10;;;;;;4916726;29;20032;-83
2023/08/08 05:24:04;;;;;;;4.72;2.88;;;17.70;70.50;;;;;;4899562;29;20058;-85
2023/08/08 05:26:30;;;;;;;6.95;3.10;;;17.80;70.50;;;;;;4920445;29;20486;-84
2023/08/08 05:28:56;;;;;;;6.68;2.67;;;17.90;70.60;;;;;;4936239;29;20043;-85
2023/08/08 05:31:22;;;;;;;5.15;2.47;;;17.90;70.90;;;;;;4935971;29;20036;-85
2023/08/08 05:33:50;;;;;;;4.57;2.25;;;17.80;71.50;;;;;;4936145;29;20024;-85
2023/08/08 05:36:16;;;;;;;5.03;2.22;;;17.90;71.20;;;;;;4954109;29;20034;-85
2023/08/08 05:38:42;;;;;;;6.47;2.63;;;18.00;71.20;;;;;;4923077;29;20035;-85
2023/08/08 05:41:08;;;;;;;5.38;2.63;;;18.20;71.00;;;;;;4934897;29;20042;-87
2023/08/08 05:43:34;;;;;;;6.05;2.63;;;18.30;71.50;;;;;;4932244;29;20496;-85
2023/08/08 05:46:00;;;;;;;5.10;2.67;;;18.40;70.50;;;;;;4916829;29;20036;-86
2023/08/08 05:48:25;;;;;;;6.47;2.13;;;18.50;69.80;;;;;;4915179;29;20055;-86
2023/08/08 05:50:51;;;;;;;4.00;2.40;;;18.50;69.50;;;;;;4915854;29;20032;-83
2023/08/08 05:53:17;;;;;;;9.65;2.65;;;18.70;69.40;;;;;;4942978;29;20084;-84
2023/08/08 05:55:43;;;;;;;5.47;2.40;;;18.70;69.30;;;;;;4935020;29;20038;-86
2023/08/08 05:58:09;;;;;;;2.70;2.13;;;18.80;69.60;;;;;;4939001;29;20032;-79
2023/08/08 06:00:35;;;;;;;3.78;2.08;;;18.90;69.90;;;;;;4916130;29;20024;-79
2023/08/08 06:03:01;;;;;;;6.32;2.72;;;19.00;71.10;;;;;;4916766;29;20031;-80
2023/08/08 06:05:28;;;;;;;5.23;2.30;;;19.00;70.80;;;;;;4932155;29;20032;-79
2023/08/08 06:07:57;;;;;;;7.68;3.03;;;19.10;69.60;;;;;;4920166;29;20031;-79
2023/08/08 06:10:25;;;;;;;8.32;3.17;;;19.20;70.40;;;;;;4920563;29;20071;-79
2023/08/08 06:12:50;;;;;;;6.93;2.70;;;19.20;71.40;;;;;;4917446;29;20039;-76
2023/08/08 06:15:16;;;;;;;9.73;2.83;;;19.30;71.90;;;;;;4898716;29;20032;-76
2023/08/08 06:17:42;;;;;;;7.05;2.72;;;19.40;71.40;;;;;;4915353;29;20491;-76
2023/08/08 06:20:09;;;;;;;2.97;2.30;;;19.50;70.90;;;;;;4915399;29;20096;-76
2023/08/08 06:22:36;;;;;;;4.55;2.35;;;19.50;70.20;;;;;;4913957;29;20088;-76
2023/08/08 06:25:03;;;;;;;2.50;1.67;;;19.60;69.70;;;;;;4915828;29;20119;-76
2023/08/08 06:27:29;;;;;;;11.65;2.50;;;19.70;68.40;;;;;;4915073;29;20110;-76
2023/08/08 06:29:55;;;;;;;2.05;1.83;;;19.70;68.20;;;;;;4915221;29;20547;-76
2023/08/08 06:32:21;;;;;;;5.20;2.50;;;19.70;68.10;;;;;;4914117;29;20451;-76
2023/08/08 06:34:47;;;;;;;4.10;1.63;;;19.70;68.70;;;;;;4914734;29;20041;-76
2023/08/08 06:37:13;;;;;;;5.38;1.90;;;19.80;69.10;;;;;;4917949;29;20024;-76
2023/08/08 06:39:40;;;;;;;3.90;1.90;;;19.80;69.50;;;;;;4917755;29;20458;-76
2023/08/08 06:42:06;;;;;;;2.70;1.58;;;19.80;69.20;;;;;;4917539;29;20042;-76
2023/08/08 06:44:45;;;;;;;2.65;1.88;;;19.80;69.60;;;;;;4918966;29;20039;-76
2023/08/08 06:47:11;;;;;;;6.15;2.05;;;19.80;69.30;;;;;;4917568;29;20103;-77
2023/08/08 06:49:38;;;;;;;4.80;1.90;;;19.90;69.10;;;;;;4918793;29;20032;-76
2023/08/08 06:52:05;;;;;;;4.10;1.95;;;19.90;69.70;;;;;;4918728;29;20103;-77
2023/08/08 06:54:31;;;;;;;4.93;1.88;;;19.90;69.00;;;;;;4918758;29;20028;-76
2023/08/08 06:56:57;;;;;;;4.72;2.25;;;20.00;69.20;;;;;;4918617;29;20071;-76
2023/08/08 06:59:24;;;;;;;1.80;1.50;;;20.10;69.00;;;;;;4918623;29;20489;-76
2023/08/08 07:01:50;;;;;;;2.70;1.60;;;20.20;68.20;;;;;;4917301;29;20183;-76
2023/08/08 07:04:17;;;;;;;2.90;1.70;;;20.20;67.60;;;;;;4918638;29;20154;-76
2023/08/08 07:06:47;;;;;;;2.10;1.63;;;20.30;66.30;;;;;;4933053;29;20036;-76
2023/08/08 10:01:07;;;;;;;4.88;1.40;;;25.10;52.90;;;;;;5180412;23;20040;-81
2023/08/08 10:03:36;;;;;;;4.88;1.45;;;25.10;53.30;;;;;;4918048;29;20038;-84
2023/08/08 10:06:02;;;;;;;7.43;1.42;;;25.10;52.80;;;;;;4918491;29;20027;-81
2023/08/08 10:08:29;;;;;;;2.37;1.40;;;25.10;53.10;;;;;;4934965;29;20028;-81
2023/08/08 10:10:55;;;;;;;;;;;25.10;53.20;;;;;;4935988;29;20035;-82
2023/08/08 10:13:23;;;;;;;2.17;1.30;;;25.20;53.40;;;;;;4936215;29;19961;-81
2023/08/08 10:15:49;;;;;;;2.58;1.48;;;25.30;53.00;;;;;;4936044;29;20035;-81
2023/08/08 10:18:16;;;;;;;5.05;1.13;;;25.30;53.40;;;;;;4919671;29;20032;-79
2023/08/08 10:20:47;;;;;;;1.73;1.48;;;25.40;52.50;;;;;;4936175;29;20034;-80
2023/08/08 10:23:15;;;;;;;1.88;1.20;;;25.50;52.40;;;;;;4936998;29;20031;-82
2023/08/08 10:25:46;;;;;;;3.22;1.38;;;25.50;52.30;;;;;;4936828;29;20031;-81
2023/08/08 10:28:14;;;;;;;7.78;4.57;;;25.50;51.60;;;;;;4918458;29;20039;-82
2023/08/08 10:30:52;;;;;;;19.98;17.00;;;25.50;52.50;;;;;;4935776;29;20478;-82
2023/08/08 10:33:26;;;;;;;65.95;21.90;;;25.60;54.00;;;;;;4918373;29;20490;-81
2023/08/08 10:36:03;;;;;;;2.78;1.75;;;25.70;52.90;;;;;;4917794;29;20031;-78
2023/08/08 10:38:52;;;;;;;;;;;25.80;53.20;;;;;;4935294;29;20043;-82
2023/08/08 10:41:19;;;;;;;2.80;1.00;;;25.90;51.50;;;;;;4936705;29;19914;-80
2023/08/08 10:43:51;;;;;;;3.75;1.27;;;26.00;52.20;;;;;;4940599;29;20035;-81
2023/08/08 10:46:28;;;;;;;1.42;1.08;;;26.10;51.70;;;;;;4917766;29;20434;-79
2023/08/08 10:48:59;;;;;;;2.97;0.90;;;26.20;52.60;;;;;;4920809;29;20048;-79
2023/08/08 10:51:47;;;;;;;2.95;0.95;;;26.40;51.80;;;;;;4926560;29;20024;-79
2023/08/08 10:54:15;;;;;;;3.30;0.90;;;26.50;50.80;;;;;;4938650;29;20036;-80
2023/08/08 10:56:48;;;;;;;3.33;0.90;;;26.50;51.10;;;;;;4941682;29;20486;-80
2023/08/08 10:59:19;;;;;;;1.40;1.13;;;26.50;52.00;;;;;;4942539;29;20035;-79
2023/08/08 11:01:47;;;;;;;3.65;1.60;;;26.60;52.10;;;;;;4942298;29;20043;-79
2023/08/08 11:04:13;;;;;;;4.10;1.48;;;26.70;51.20;;;;;;4942157;29;20498;-80
2023/08/08 11:06:40;;;;;;;2.05;1.20;;;26.70;49.70;;;;;;4940578;29;20167;-79
2023/08/08 11:09:07;;;;;;;3.85;0.90;;;26.80;51.00;;;;;;4921191;29;20035;-79
2023/08/08 11:11:43;;;;;;;2.00;1.00;;;26.90;50.60;;;;;;4932669;29;20038;-79
2023/08/08 11:14:22;;;;;;;3.15;1.02;;;26.90;49.00;;;;;;4940453;29;20036;-79
2023/08/08 11:16:50;;;;;;;7.32;1.80;;;27.00;50.40;;;;;;4939732;29;20032;-80
2023/08/08 11:19:16;;;;;;;1.73;1.00;;;27.10;48.40;;;;;;4940287;29;20035;-80
2023/08/08 11:21:44;;;;;;;4.00;1.33;;;27.10;49.00;;;;;;4936146;29;20435;-79
2023/08/08 11:24:11;;;;;;;1.52;1.13;;;27.20;50.10;;;;;;4923946;29;20041;-79
2023/08/08 11:26:37;;;;;;;1.90;1.15;;;27.30;49.60;;;;;;4940129;29;20062;-79
2023/08/08 11:29:05;;;;;;;1.20;0.80;;;27.40;50.20;;;;;;4924695;29;20023;-80
2023/08/08 11:31:32;;;;;;;1.92;0.85;;;27.50;49.00;;;;;;4944838;29;20031;-80
2023/08/08 11:33:59;;;;;;;;;;;27.60;49.00;;;;;;4924224;29;20055;-80
2023/08/08 11:36:28;;;;;;;1.42;1.10;;;27.70;48.30;;;;;;4919998;29;19942;-80
2023/08/08 11:38:55;;;;;;;2.40;1.00;;;27.80;48.00;;;;;;4927106;29;20035;-80
2023/08/08 11:41:23;;;;;;;3.00;1.08;;;27.80;48.60;;;;;;4925457;29;20488;-80
2023/08/08 11:43:51;;;;;;;2.80;1.08;;;27.80;48.40;;;;;;4927701;29;20031;-80
2023/08/08 11:46:17;;;;;;;1.60;1.27;;;27.70;46.80;;;;;;4943793;29;20036;-79
2023/08/08 11:48:46;;;;;;;1.98;1.17;;;27.80;48.00;;;;;;4950422;29;20042;-79
2023/08/08 11:51:14;;;;;;;3.08;1.02;;;28.00;48.40;;;;;;4950205;29;20047;-79
2023/08/08 11:53:51;;;;;;;4.40;1.08;;;28.20;48.10;;;;;;4933079;29;20521;-79
2023/08/08 11:56:19;;;;;;;4.38;1.40;;;28.40;46.60;;;;;;4948477;29;20027;-79
2023/08/08 11:58:45;;;;;;;6.05;1.40;;;28.60;45.90;;;;;;4950378;29;20043;-79
2023/08/08 12:01:14;;;;;;;2.25;1.00;;;28.60;46.80;;;;;;4930591;29;20455;-79
2023/08/08 12:03:40;;;;;;;3.22;1.05;;;28.70;46.20;;;;;;4951139;29;20036;-79
2023/08/08 12:06:14;;;;;;;3.40;1.20;;;28.80;47.70;;;;;;4950208;29;20035;-79
2023/08/08 12:08:42;;;;;;;4.70;1.50;;;28.90;46.80;;;;;;4950136;29;20035;-79
2023/08/08 12:11:09;;;;;;;2.47;1.23;;;29.00;45.50;;;;;;4949497;29;20039;-79
2023/08/08 12:13:39;;;;;;;6.35;1.25;;;29.00;45.60;;;;;;4950673;29;20031;-79
2023/08/08 12:16:09;;;;;;;4.85;1.67;;;29.10;44.60;;;;;;4950033;29;20058;-79
2023/08/08 12:18:37;;;;;;;1.88;1.38;;;29.20;44.20;;;;;;4929134;29;20507;-79
2023/08/08 12:21:04;;;;;;;2.05;1.10;;;29.20;43.50;;;;;;4928191;29;20052;-79
2023/08/08 12:23:30;;;;;;;4.47;1.77;;;29.20;43.90;;;;;;4932607;29;20039;-79
2023/08/08 12:25:57;;;;;;;1.77;1.17;;;29.20;43.30;;;;;;4932350;29;20043;-79
2023/08/08 12:28:24;;;;;;;3.97;1.30;;;29.30;42.90;;;;;;4949482;29;20046;-79
2023/08/08 12:30:50;;;;;;;3.85;1.35;;;29.30;42.10;;;;;;4948686;29;20027;-79
2023/08/08 12:33:16;;;;;;;1.53;1.10;;;29.20;40.50;;;;;;4949548;29;20058;-79
2023/08/08 12:35:41;;;;;;;3.33;1.10;;;29.20;40.50;;;;;;4949648;29;20275;-79
2023/08/08 12:38:07;;;;;;;6.40;1.50;;;29.20;42.50;;;;;;4951508;29;20569;-79
2023/08/08 12:40:33;;;;;;;2.20;0.93;;;29.30;41.60;;;;;;4931952;29;20278;-79
2023/08/08 12:42:59;;;;;;;1.42;0.88;;;29.50;41.50;;;;;;4929634;29;20032;-79
2023/08/08 12:45:25;;;;;;;1.67;0.98;;;29.60;41.10;;;;;;4900903;29;20034;-79
2023/08/08 12:47:51;;;;;;;1.20;0.70;;;29.70;39.10;;;;;;4949969;29;20031;-81
2023/08/08 12:50:17;;;;;;;1.73;0.67;;;29.60;39.70;;;;;;4941837;29;20103;-81
2023/08/08 12:52:43;;;;;;;7.77;1.00;;;29.70;40.70;;;;;;4929030;29;20036;-79
2023/08/08 12:55:11;;;;;;;2.37;1.87;;;29.80;40.80;;;;;;4947328;29;20272;-80
2023/08/08 12:57:37;;;;;;;34.50;27.48;;;30.00;40.50;;;;;;4949911;29;20106;-79
2023/08/08 13:00:03;;;;;;;14.48;13.10;;;30.20;40.80;;;;;;4949721;29;20042;-80
2023/08/08 13:02:29;;;;;;;;;;;30.20;41.20;;;;;;4906635;29;20553;-80
2023/08/08 13:04:55;;;;;;;3.38;1.60;;;30.30;40.10;;;;;;4935958;29;19910;-80
2023/08/08 13:07:21;;;;;;;7.88;1.65;;;30.50;40.60;;;;;;4940208;29;20034;-80
2023/08/08 13:09:47;;;;;;;0.85;0.70;;;30.80;38.60;;;;;;4940115;29;20027;-80
2023/08/08 13:12:12;;;;;;;5.28;1.10;;;31.20;38.30;;;;;;4919873;29;20028;-79
2023/08/08 13:14:38;;;;;;;1.40;1.20;;;32.00;37.60;;;;;;4931476;29;20479;-80
2023/08/08 13:17:04;;;;;;;2.30;0.80;;;32.90;36.80;;;;;;4938201;29;20279;-79
2023/08/08 13:19:30;;;;;;;2.75;0.80;;;33.90;35.80;;;;;;4944363;29;20307;-79
2023/08/08 13:21:56;;;;;;;2.78;1.20;;;34.80;34.60;;;;;;4949284;29;20479;-79
2023/08/08 13:24:24;;;;;;;4.60;1.30;;;35.80;33.40;;;;;;4930227;29;20036;-79
2023/08/08 13:26:50;;;;;;;1.60;0.90;;;36.60;32.80;;;;;;4924839;29;20036;-79
2023/08/08 13:29:16;;;;;;;1.40;0.90;;;37.10;30.80;;;;;;4914237;29;20050;-79
2023/08/08 13:31:43;;;;;;;;;;;37.80;30.10;;;;;;4932640;29;20034;-80
2023/08/08 13:34:09;;;;;;;4.90;0.70;;;38.50;31.10;;;;;;4910601;29;19986;-79
2023/08/08 13:36:35;;;;;;;1.55;1.02;;;39.10;29.70;;;;;;4943116;29;20032;-80
2023/08/08 13:39:01;;;;;;;;;;;39.80;28.70;;;;;;4949827;29;20031;-80
2023/08/08 13:41:27;;;;;;;1.08;0.98;;;40.10;28.90;;;;;;4949154;29;19911;-79
2023/08/08 13:43:52;;;;;;;;;;;40.40;27.80;;;;;;4950209;29;20059;-79
2023/08/08 13:46:18;;;;;;;3.13;1.05;;;40.80;28.20;;;;;;4949099;29;19911;-79
2023/08/08 13:48:44;;;;;;;;;;;40.80;28.70;;;;;;4950907;29;20035;-79
2023/08/08 13:51:10;;;;;;;3.63;1.20;;;40.80;29.40;;;;;;4949386;29;19917;-79
2023/08/08 13:53:36;;;;;;;7.25;1.30;;;41.40;28.80;;;;;;4946686;29;20047;-80
2023/08/08 13:56:01;;;;;;;4.88;1.27;;;42.20;28.80;;;;;;4928791;29;20040;-80
2023/08/08 13:58:27;;;;;;;3.10;1.58;;;42.70;28.70;;;;;;4950863;29;20020;-80
2023/08/08 14:19:13;;;;;;;2.73;1.13;;;42.70;28.90;;;;;;5097129;27;20383;-79
2023/08/08 14:21:38;;;;;;;2.13;1.27;;;40.70;29.00;;;;;;5130849;22;20106;-79
2023/08/08 14:24:05;;;;;;;2.22;1.00;;;40.00;29.70;;;;;;5090378;28;20028;-79
2023/08/08 14:26:30;;;;;;;4.18;1.40;;;39.60;30.00;;;;;;5089080;28;20020;-78
2023/08/08 14:28:57;;;;;;;;;;;39.20;30.30;;;;;;5094845;28;20421;-78
2023/08/08 14:31:22;;;;;;;3.47;1.00;;;39.20;32.00;;;;;;5096823;28;19905;-80
2023/08/08 14:33:48;;;;;;;;;;;39.50;30.70;;;;;;5095970;28;20031;-78
2023/08/08 14:36:14;;;;;;;1.70;1.10;;;40.20;29.40;;;;;;5077740;28;20001;-78
2023/08/08 14:38:40;;;;;;;2.05;1.40;;;40.90;29.10;;;;;;5095651;28;20059;-77
2023/08/08 14:41:06;;;;;;;2.53;1.17;;;41.80;28.20;;;;;;5097243;28;20468;-79
2023/08/08 14:43:32;;;;;;;1.75;1.30;;;42.50;27.80;;;;;;5096096;28;20040;-78
2023/08/08 14:45:57;;;;;;;2.20;1.50;;;42.80;28.00;;;;;;5094503;28;20363;-78
2023/08/08 14:48:23;;;;;;;4.63;1.50;;;43.30;27.80;;;;;;5098774;28;20028;-78
2023/08/08 14:50:49;;;;;;;3.35;1.58;;;43.60;27.10;;;;;;5101281;28;20031;-79
2023/08/08 14:53:15;;;;;;;2.00;1.80;;;44.10;27.40;;;;;;5097977;28;20081;-82
2023/08/08 14:55:41;;;;;;;1.65;1.40;;;44.50;27.00;;;;;;5098597;28;20020;-79
2023/08/08 14:58:06;;;;;;;3.05;1.58;;;44.90;27.10;;;;;;5098696;28;20042;-79
2023/08/08 15:00:32;;;;;;;3.33;1.50;;;45.30;26.70;;;;;;5099354;28;20387;-79
2023/08/08 15:02:58;;;;;;;2.20;1.40;;;45.20;26.60;;;;;;5093562;28;20067;-80
2023/08/08 15:05:24;;;;;;;4.15;1.80;;;45.00;26.60;;;;;;5079474;28;20538;-79
2023/08/08 15:07:50;;;;;;;2.65;1.63;;;44.70;25.50;;;;;;5098011;28;20029;-80
2023/08/08 15:10:16;;;;;;;1.60;1.50;;;44.40;26.00;;;;;;5084184;28;20028;-80
2023/08/08 15:12:41;;;;;;;3.13;1.70;;;44.40;26.20;;;;;;5077909;28;20082;-80
2023/08/08 15:15:08;;;;;;;2.97;1.70;;;44.70;26.40;;;;;;5080285;28;20048;-80
2023/08/08 15:17:37;;;;;;;6.82;2.53;;;44.50;26.30;;;;;;5089226;28;20028;-80
2023/08/08 15:20:03;;;;;;;3.33;2.30;;;44.40;26.30;;;;;;5067142;28;20024;-80
2023/08/08 15:22:30;;;;;;;3.05;2.50;;;44.40;26.70;;;;;;5080412;28;20040;-80
2023/08/08 15:24:56;;;;;;;4.60;2.90;;;43.80;25.70;;;;;;5069011;28;20024;-80
2023/08/08 15:27:21;;;;;;;3.05;2.38;;;43.60;26.50;;;;;;5049163;28;20079;-80
2023/08/08 15:29:47;;;;;;;7.07;1.38;;;43.10;26.40;;;;;;5064625;28;20487;-79
2023/08/08 15:32:13;;;;;;;1.65;1.00;;;42.70;26.30;;;;;;5064574;28;20078;-80
2023/08/08 15:34:40;;;;;;;1.20;0.95;;;41.70;27.30;;;;;;5062150;28;20078;-79
2023/08/08 15:37:05;;;;;;;3.08;0.93;;;40.80;27.20;;;;;;5066192;28;20072;-79
2023/08/08 15:39:32;;;;;;;1.95;0.70;;;39.80;27.60;;;;;;5046010;28;20500;-79
2023/08/08 15:41:57;;;;;;;1.48;0.80;;;38.70;28.10;;;;;;5055261;28;20017;-83
2023/08/08 15:44:23;;;;;;;3.00;1.40;;;38.10;29.10;;;;;;5062473;28;20039;-83
2023/08/08 15:46:49;;;;;;;3.80;1.00;;;37.50;29.10;;;;;;5081257;28;20024;-78
2023/08/08 15:49:15;;;;;;;;;;;36.90;29.40;;;;;;5080370;28;20021;-79
2023/08/08 15:51:42;;;;;;;1.00;0.60;;;36.50;30.30;;;;;;5063267;28;19916;-79
2023/08/08 15:54:08;;;;;;;;;;;36.10;30.00;;;;;;5078524;28;20020;-79
2023/08/08 15:56:36;;;;;;;4.28;0.70;;;35.80;31.20;;;;;;5048712;28;20340;-79
2023/08/08 15:59:02;;;;;;;3.78;1.00;;;35.40;30.30;;;;;;5059910;28;20029;-79